South Uist Range, United Kingdom

11:11 PM BST on July 25, 2014 (GMT +0100)
Askernish (IEILEANS5) Elev 39 ft | 57.19 °N, 7.40 °W | Change Station

Current weather conditions updated 10 minutes ago

Clear
Clear
61.3 °F
Feels Like 61.3 °F
N
4.0
Wind Variable Wind from ESE
Gusts 7.0 mph

Tomorrow is forecast to be Much Cooler than today. Cloudy with rain.

Today
High -- | Low -- °F
--% Chance of Precip.
Yesterday
High -- | Low -- °F
Precip. -- in
5:13 AM 9:57 PM
Waning Crescent, 1% visible
Pressure 30.06 in
Visibility 6.2 miles
Clouds
Dew Point 59 °F
Humidity 91%
Rainfall 0.00 in
Snow Depth Not available.
UV Not available.
Pollen Not available.
Air Quality Not available.
Flu Activity Not available.
METAR EGPL 252150Z AUTO VRB02KT 9999 NCD 17/15 Q1018

More Conditions Fewer Conditions

Pressure 30.06 in
Visibility 6.2 miles
Clouds
Dew Point 59 °F
Humidity 91%
Rainfall 0.00 in
Snow Depth Not available.
UV Not available.
Pollen Not available.
Air Quality Not available.
Flu Activity Not available.
METAR EGPL 252150Z AUTO VRB02KT 9999 NCD 17/15 Q1018

More Conditions Fewer Conditions

10-Day Weather Forecast

Almanac

Astronomy

Jul. 25, 2014 Rise Set
Actual Time 5:13 AM BST 9:57 PM BST
Civil Twilight 4:17 AM BST 10:51 PM BST
Nautical Twilight 2:38 AM BST 12:27 AM BST
Astronomical Twilight Sun does not rise Sun does not rise
Moon 4:08 AM BST 8:32 PM BST
Length of Visible Light 18h 33m
Length of Day
16h 44m
Tomorrow will be 3m 46s shorter.
Waning Crescent, 1% of the Moon is Illuminated
Today
Waning Crescent
Jul 26
New
Aug 3
First Quarter
Aug 10
Full
Aug 17
Last Quarter

Today's Extremes

Country Highs Country Lows

Community

WunderPhotos

Upload Photos

1,737,415 photos uploaded!

Nearby

Snow Depth

Not available.

Earthquake Activity

City Distance Mag. Time & Date
No recent earthquake activity has been reported nearby.
Minimum magnitude displayed is 2.5.

Coastal Water Temperatures

Place Temperature
No Stations Reporting

Nearby Weather Stations

Station Location Temp. Dew Point Humidity Wind Precip. Elev Updated Type
Askernish, Isle Of South Uist 61.3 °F 59 °F 91% ESE  at  4.0 mph 0.00 in / hr 39 ft 11:00 PM BST Normal
Balivanich, Isle Of Benbecula 65.0 °F 60 °F 85% West  at  2.0 mph 0.00 in / hr 23 ft 11:11 PM BST Rapid Fire

Show More Stations Show Fewer Stations